aviador You're here:

KCUB Decoded Metar

COLUMBIA-OWENS in SC, USA
Report Time2017-08-18 09:53:00
UTC Time2017-08-18 10:48:13
Flight Rules vfr VFR
Wind210° at 04 kt
W.Decomp.*RWY 13: 0.3 kt HW 4.0 kt RCW
W.Rank210° ranks 11
Current wind is below 210° avg. (5.7)
Visibility9999 m
Phenomena:N/A
Clouds:N/A
Expected CloudBase > 800 ft AGL from Temp-Dew spread
CeilingNone
Temp26°C (ISA +11)
Dew Point24°C (89% RH)
QNH1014 hPa
Density Alt1,857 ft
Elevation184 ft
Report Wrong Elevation
Raw Report
METAR KCUB 180953Z AUTO 21004KT 10SM CLR 26/24 A2995 RMK AO2 SLP140
T02610239=

Extra information for KCUB:More info

Metar Taf Metar & Taf Last 4 Metars F.Rules Stats Wind Profile Meteogram Temp Stats Airport Information Weather charts Add Link Nearby VenuesMetar ALERT Operation Metar Decoded Social comments

AIRNAV info for KCUB